createdAt,value
2019-05-05T00:00:56.117Z,4.89
2019-05-05T00:06:05.188Z,4.90
2019-05-05T00:11:15.408Z,4.69
2019-05-05T00:16:36.785Z,5.04
2019-05-05T00:21:41.198Z,4.32
2019-05-05T00:26:46.121Z,4.49
2019-05-05T00:31:50.589Z,4.30
2019-05-05T00:36:55.360Z,4.38
2019-05-05T00:41:59.860Z,4.65
2019-05-05T00:47:24.622Z,4.66
2019-05-05T00:52:28.824Z,4.57
2019-05-05T00:57:34.797Z,4.65
2019-05-05T01:02:40.982Z,4.57
2019-05-05T01:07:45.328Z,4.41
2019-05-05T01:12:49.702Z,4.74
2019-05-05T01:17:55.299Z,4.89
2019-05-05T01:23:00.804Z,4.42
2019-05-05T01:28:05.277Z,4.37
2019-05-05T01:33:14.572Z,4.43
2019-05-05T01:38:20.635Z,4.56
2019-05-05T01:43:25.389Z,4.71
2019-05-05T01:48:29.848Z,4.46
2019-05-05T01:53:35.018Z,4.71
2019-05-05T01:58:39.491Z,4.51
2019-05-05T02:03:44.335Z,4.11
2019-05-05T02:08:48.791Z,4.15
2019-05-05T02:13:54.607Z,4.40
2019-05-05T02:18:59.083Z,4.73
2019-05-05T02:24:05.248Z,4.39
2019-05-05T02:29:17.716Z,4.42
2019-05-05T02:34:22.059Z,4.54
2019-05-05T02:39:26.439Z,4.52
2019-05-05T02:44:34.592Z,4.75
2019-05-05T02:49:38.158Z,4.61
2019-05-05T02:54:44.200Z,4.48
2019-05-05T02:59:56.451Z,4.94
2019-05-05T03:05:01.195Z,4.69
2019-05-05T03:10:07.648Z,4.86
2019-05-05T03:15:15.185Z,4.46
2019-05-05T03:20:20.239Z,4.21
2019-05-05T03:25:24.942Z,4.55
2019-05-05T03:30:29.446Z,4.32
2019-05-05T03:35:34.593Z,4.41
2019-05-05T03:40:43.651Z,4.36
2019-05-05T03:45:55.648Z,4.34
2019-05-05T03:51:01.069Z,4.30
2019-05-05T03:56:05.422Z,4.27
2019-05-05T04:01:32.121Z,4.37
2019-05-05T04:06:38.111Z,4.45
2019-05-05T04:11:44.371Z,4.62
2019-05-05T04:16:57.219Z,4.81
2019-05-05T04:22:04.202Z,4.79
2019-05-05T04:27:08.820Z,4.72
2019-05-05T04:32:14.057Z,5.31
2019-05-05T04:37:18.713Z,5.19
2019-05-05T04:42:24.558Z,4.77
2019-05-05T04:47:46.852Z,5.00
2019-05-05T04:52:54.039Z,5.61
2019-05-05T04:57:58.386Z,5.36
2019-05-05T05:03:04.617Z,5.85
2019-05-05T05:08:09.000Z,5.72
2019-05-05T05:13:13.850Z,5.73
2019-05-05T05:18:18.655Z,5.59
2019-05-05T05:23:24.631Z,5.26
2019-05-05T05:28:29.305Z,6.07
2019-05-05T05:33:34.429Z,6.48
2019-05-05T05:38:43.736Z,6.06
2019-05-05T05:44:03.595Z,5.84
2019-05-05T05:49:13.613Z,5.98
2019-05-05T05:54:18.043Z,6.47
2019-05-05T05:59:24.543Z,6.82
2019-05-05T06:04:28.475Z,7.07
2019-05-05T06:09:34.483Z,7.76
2019-05-05T06:14:39.312Z,7.44
2019-05-05T06:19:44.617Z,8.17
2019-05-05T06:24:49.133Z,8.36
2019-05-05T06:29:54.260Z,8.28
2019-05-05T06:34:59.222Z,8.45
2019-05-05T06:40:06.146Z,8.33
2019-05-05T06:45:21.221Z,8.93
2019-05-05T06:50:25.592Z,8.40
2019-05-05T06:55:30.044Z,8.65
2019-05-05T07:00:34.768Z,9.61
2019-05-05T07:05:39.251Z,9.06
2019-05-05T07:10:44.409Z,8.57
2019-05-05T07:15:50.077Z,9.17
2019-05-05T07:20:54.638Z,9.18
2019-05-05T07:25:59.048Z,9.33
2019-05-05T07:31:04.357Z,8.63
2019-05-05T07:36:16.409Z,8.39
2019-05-05T07:41:23.406Z,7.99
2019-05-05T07:46:27.426Z,8.12
2019-05-05T07:51:33.592Z,8.59
2019-05-05T07:56:38.176Z,8.18
2019-05-05T08:01:44.311Z,8.41
2019-05-05T08:06:48.563Z,8.40
2019-05-05T08:11:54.164Z,8.44
2019-05-05T08:17:00.399Z,8.98
2019-05-05T08:22:05.087Z,8.93
2019-05-05T08:27:14.425Z,9.85
2019-05-05T08:32:23.827Z,9.22
2019-05-05T08:37:28.543Z,9.32
2019-05-05T08:42:33.933Z,9.40
2019-05-05T08:47:38.447Z,9.71
2019-05-05T08:52:44.453Z,9.87
2019-05-05T08:57:49.203Z,10.35
2019-05-05T09:02:54.342Z,9.52
2019-05-05T09:07:58.847Z,9.10
2019-05-05T09:13:03.961Z,9.48
2019-05-05T09:18:09.289Z,9.15
2019-05-05T09:23:14.724Z,9.39
2019-05-05T09:28:24.623Z,9.86
2019-05-05T09:33:29.120Z,9.68
2019-05-05T09:38:34.714Z,9.72
2019-05-05T09:43:39.368Z,9.99
2019-05-05T09:48:44.148Z,10.55
2019-05-05T09:53:48.622Z,10.12
2019-05-05T09:58:54.497Z,10.05
2019-05-05T10:04:13.869Z,9.52
2019-05-05T10:09:18.293Z,10.55
2019-05-05T10:14:22.651Z,10.37
2019-05-05T10:19:28.773Z,10.90
2019-05-05T10:24:40.750Z,10.14
2019-05-05T10:29:45.762Z,10.07
2019-05-05T10:34:53.534Z,9.74
2019-05-05T10:40:03.641Z,10.13
2019-05-05T10:45:10.674Z,10.46
2019-05-05T10:50:17.040Z,10.24
2019-05-05T10:55:24.091Z,10.34
2019-05-05T11:00:41.020Z,10.93
2019-05-05T11:05:48.810Z,10.31
2019-05-05T11:10:57.964Z,10.36
2019-05-05T11:16:04.354Z,10.20
2019-05-05T11:21:08.907Z,9.91
2019-05-05T11:26:14.369Z,10.28
2019-05-05T11:31:19.449Z,10.87
2019-05-05T11:36:41.523Z,10.99
2019-05-05T11:41:45.979Z,10.93
2019-05-05T11:46:50.620Z,10.87
2019-05-05T11:51:55.017Z,11.19
2019-05-05T11:57:00.647Z,10.35
2019-05-05T12:02:06.023Z,10.32
2019-05-05T12:07:11.286Z,10.73
2019-05-05T12:12:16.276Z,10.78
2019-05-05T12:17:36.640Z,10.96
2019-05-05T12:22:41.171Z,10.93
2019-05-05T12:28:04.379Z,10.82
2019-05-05T12:33:09.319Z,10.59
2019-05-05T12:38:13.728Z,10.54
2019-05-05T12:43:18.153Z,10.80
2019-05-05T12:48:24.238Z,11.09
2019-05-05T12:53:28.604Z,11.48
2019-05-05T12:58:33.588Z,11.69
2019-05-05T13:03:40.549Z,11.76
2019-05-05T13:08:44.976Z,11.93
2019-05-05T13:13:49.375Z,11.88
2019-05-05T13:18:54.010Z,11.56
2019-05-05T13:24:09.411Z,11.22
2019-05-05T13:29:14.022Z,10.85
2019-05-05T13:34:19.622Z,10.75
2019-05-05T13:39:24.879Z,10.25
2019-05-05T13:44:49.984Z,10.39
2019-05-05T13:49:56.023Z,10.30
2019-05-05T13:55:00.432Z,10.52
2019-05-05T14:00:06.645Z,11.11
2019-05-05T14:05:13.286Z,10.86
2019-05-05T14:10:19.674Z,10.96
2019-05-05T14:15:24.422Z,10.73
2019-05-05T14:20:28.885Z,11.35
2019-05-05T14:25:33.407Z,11.40
2019-05-05T14:30:56.015Z,11.26
2019-05-05T14:36:04.993Z,11.14
2019-05-05T14:41:09.491Z,10.83
2019-05-05T14:46:14.482Z,10.74
2019-05-05T14:51:19.091Z,10.64
2019-05-05T14:56:35.782Z,10.59
2019-05-05T15:01:29.585Z,10.63
2019-05-05T15:06:44.486Z,10.45
2019-05-05T15:12:06.935Z,10.67
2019-05-05T15:17:11.396Z,10.61
2019-05-05T15:22:15.832Z,10.73
2019-05-05T15:27:20.247Z,10.90
2019-05-05T15:32:24.737Z,10.96
2019-05-05T15:37:29.091Z,11.07
2019-05-05T15:42:33.590Z,10.83
2019-05-05T15:47:37.957Z,11.35
2019-05-05T15:52:44.041Z,11.12
2019-05-05T15:57:48.863Z,11.09
2019-05-05T16:02:54.847Z,11.21
2019-05-05T16:08:00.309Z,11.10
2019-05-05T16:13:04.925Z,10.79
2019-05-05T16:18:13.792Z,10.69
2019-05-05T16:23:25.602Z,10.64
2019-05-05T16:28:29.963Z,10.92
2019-05-05T16:33:34.377Z,10.97
2019-05-05T16:38:38.680Z,11.07
2019-05-05T16:43:44.219Z,11.03
2019-05-05T16:48:48.767Z,10.90
2019-05-05T16:53:53.887Z,11.14
2019-05-05T16:58:59.219Z,11.10
2019-05-05T17:04:11.225Z,11.06
2019-05-05T17:09:09.718Z,11.56
2019-05-05T17:14:23.462Z,10.93
2019-05-05T17:19:29.591Z,10.99
2019-05-05T17:24:34.451Z,10.97
2019-05-05T17:29:38.957Z,10.76
2019-05-05T17:34:44.875Z,11.04
2019-05-05T17:39:51.204Z,10.90
2019-05-05T17:45:03.791Z,10.77
2019-05-05T17:50:11.801Z,10.71
2019-05-05T17:55:29.717Z,10.66
2019-05-05T18:00:35.738Z,10.55
2019-05-05T18:05:59.090Z,10.49
2019-05-05T18:11:05.071Z,10.49
2019-05-05T18:16:09.560Z,10.19
2019-05-05T18:21:14.319Z,10.08
2019-05-05T18:26:18.741Z,10.10
2019-05-05T18:31:24.299Z,10.06
2019-05-05T18:36:29.526Z,9.82
2019-05-05T18:41:35.609Z,9.85
2019-05-05T18:46:40.098Z,9.65
2019-05-05T18:51:45.284Z,9.72
2019-05-05T18:56:49.784Z,9.43
2019-05-05T19:02:07.781Z,9.38
2019-05-05T19:07:14.948Z,9.50
2019-05-05T19:12:19.376Z,9.35
2019-05-05T19:17:23.938Z,9.28
2019-05-05T19:22:29.326Z,9.16
2019-05-05T19:27:33.732Z,9.26
2019-05-05T19:32:38.092Z,9.16
2019-05-05T19:37:44.431Z,8.83
2019-05-05T19:42:48.578Z,8.77
2019-05-05T19:47:53.009Z,8.93
2019-05-05T19:52:57.390Z,8.81
2019-05-05T19:58:03.540Z,8.68
2019-05-05T20:03:07.905Z,8.79
2019-05-05T20:08:14.504Z,8.62
2019-05-05T20:13:18.351Z,8.69
2019-05-05T20:18:24.890Z,8.61
2019-05-05T20:23:29.484Z,8.40
2019-05-05T20:28:33.990Z,8.56
2019-05-05T20:33:40.026Z,8.38
2019-05-05T20:38:49.063Z,8.31
2019-05-05T20:43:54.212Z,8.24
2019-05-05T20:48:58.845Z,8.00
2019-05-05T20:54:04.778Z,7.83
2019-05-05T20:59:09.426Z,7.94
2019-05-05T21:04:14.156Z,7.75
2019-05-05T21:09:18.515Z,7.95
2019-05-05T21:14:33.670Z,7.82
2019-05-05T21:19:29.101Z,7.88
2019-05-05T21:24:33.555Z,7.79
2019-05-05T21:29:42.182Z,7.63
2019-05-05T21:34:45.018Z,7.46
2019-05-05T21:39:49.497Z,7.57
2019-05-05T21:44:57.404Z,7.53
2019-05-05T21:50:03.736Z,7.34
2019-05-05T21:55:10.071Z,7.26
2019-05-05T22:00:34.632Z,6.99
2019-05-05T22:05:41.420Z,6.80
2019-05-05T22:10:45.829Z,6.88
2019-05-05T22:15:50.165Z,7.06
2019-05-05T22:21:14.097Z,6.90
2019-05-05T22:26:18.702Z,6.85
2019-05-05T22:31:23.825Z,6.63
2019-05-05T22:36:28.268Z,6.72
2019-05-05T22:41:33.773Z,6.74
2019-05-05T22:46:38.378Z,6.68
2019-05-05T22:51:44.715Z,6.88
2019-05-05T22:56:48.791Z,6.53
2019-05-05T23:01:54.164Z,6.40
2019-05-05T23:07:00.295Z,6.43
2019-05-05T23:12:04.818Z,6.46
2019-05-05T23:17:10.820Z,6.15
2019-05-05T23:22:24.079Z,6.18
2019-05-05T23:27:48.925Z,6.20
2019-05-05T23:32:54.809Z,5.95
2019-05-05T23:37:59.377Z,6.18
2019-05-05T23:43:04.486Z,6.10
2019-05-05T23:48:09.441Z,5.84
2019-05-05T23:53:13.923Z,5.93
2019-05-05T23:58:18.314Z,5.70
